createdAt,value
2023-11-20T00:02:15.590Z,71.46
2023-11-20T00:04:43.193Z,71.50
2023-11-20T00:07:11.712Z,71.48
2023-11-20T00:09:39.133Z,71.69
2023-11-20T00:12:07.157Z,71.55
2023-11-20T00:14:34.597Z,71.60
2023-11-20T00:17:01.875Z,71.57
2023-11-20T00:19:29.064Z,71.57
2023-11-20T00:21:56.413Z,71.30
2023-11-20T00:24:23.634Z,71.04
2023-11-20T00:26:50.751Z,71.36
2023-11-20T00:29:18.220Z,71.05
2023-11-20T00:31:45.822Z,71.03
2023-11-20T00:34:13.228Z,71.73
2023-11-20T00:36:40.419Z,71.22
2023-11-20T00:39:07.632Z,70.99
2023-11-20T00:41:36.659Z,71.63
2023-11-20T00:44:04.509Z,70.93
2023-11-20T00:46:32.027Z,71.42
2023-11-20T00:48:59.817Z,71.60
2023-11-20T00:51:27.030Z,71.98
2023-11-20T00:53:54.153Z,72.17
2023-11-20T00:56:22.554Z,72.53
2023-11-20T00:58:49.778Z,72.19
2023-11-20T01:01:17.796Z,72.46
2023-11-20T01:03:45.092Z,73.18
2023-11-20T01:06:14.072Z,73.56
2023-11-20T01:08:42.461Z,73.32
2023-11-20T01:11:27.094Z,73.69
2023-11-20T01:14:02.850Z,73.89
2023-11-20T01:16:33.794Z,74.46
2023-11-20T01:19:04.632Z,74.43
2023-11-20T01:21:40.288Z,74.58
2023-11-20T01:24:30.501Z,74.72
2023-11-20T01:27:14.381Z,74.29
2023-11-20T01:29:57.583Z,75.15
2023-11-20T01:32:40.530Z,75.27
2023-11-20T01:35:19.757Z,75.35
2023-11-20T01:37:47.568Z,75.42
2023-11-20T01:40:32.255Z,75.54
2023-11-20T01:43:03.659Z,75.55
2023-11-20T01:45:36.680Z,75.98
2023-11-20T01:48:12.237Z,75.58
2023-11-20T01:50:49.181Z,75.74
2023-11-20T01:53:38.033Z,75.53
2023-11-20T01:56:09.705Z,75.57
2023-11-20T01:58:51.668Z,75.81
2023-11-20T02:01:29.843Z,76.09
2023-11-20T02:04:09.985Z,75.37
2023-11-20T02:06:40.676Z,76.10
2023-11-20T02:09:31.143Z,75.37
2023-11-20T02:12:02.273Z,75.39
2023-11-20T02:14:30.110Z,75.61
2023-11-20T02:17:02.217Z,75.75
2023-11-20T02:19:32.134Z,75.66
2023-11-20T02:21:59.660Z,75.41
2023-11-20T02:24:28.758Z,75.15
2023-11-20T02:27:25.595Z,75.60
2023-11-20T02:29:55.288Z,75.57
2023-11-20T02:32:23.077Z,74.97
2023-11-20T02:34:53.167Z,74.81
2023-11-20T02:37:21.130Z,75.62
2023-11-20T02:39:51.274Z,75.10
2023-11-20T02:42:19.668Z,74.31
2023-11-20T02:44:51.514Z,74.62
2023-11-20T02:47:24.019Z,74.55
2023-11-20T02:50:01.363Z,74.03
2023-11-20T02:52:32.256Z,74.33
2023-11-20T02:55:00.487Z,74.39
2023-11-20T02:57:27.990Z,74.37
2023-11-20T03:00:01.947Z,74.29
2023-11-20T03:02:31.905Z,74.50
2023-11-20T03:04:59.425Z,74.34
2023-11-20T03:07:29.387Z,74.22
2023-11-20T03:10:04.942Z,74.70
2023-11-20T03:12:36.383Z,73.97
2023-11-20T03:15:10.627Z,73.95
2023-11-20T03:17:38.766Z,73.59
2023-11-20T03:20:10.732Z,73.88
2023-11-20T03:22:44.495Z,73.83
2023-11-20T03:25:17.938Z,73.50
2023-11-20T03:27:45.855Z,73.47
2023-11-20T03:30:13.888Z,73.18
2023-11-20T03:32:41.784Z,73.72
2023-11-20T03:35:10.475Z,73.19
2023-11-20T03:37:40.661Z,73.61
2023-11-20T03:40:09.892Z,73.20
2023-11-20T03:42:40.007Z,73.51
2023-11-20T03:45:09.002Z,72.75
2023-11-20T03:47:41.325Z,72.01
2023-11-20T03:50:09.355Z,72.50
2023-11-20T03:52:37.316Z,72.42
2023-11-20T03:55:05.968Z,71.58
2023-11-20T03:57:33.928Z,71.46
2023-11-20T04:00:01.737Z,71.59
2023-11-20T04:02:32.770Z,71.14
2023-11-20T04:05:00.629Z,71.23
2023-11-20T04:07:30.259Z,71.20
2023-11-20T04:09:57.890Z,71.30
2023-11-20T04:12:29.189Z,70.92
2023-11-20T04:14:57.455Z,70.22
2023-11-20T04:17:24.727Z,70.46
2023-11-20T04:19:53.077Z,70.23
2023-11-20T04:22:21.247Z,70.57
2023-11-20T04:24:52.280Z,70.30
2023-11-20T04:27:19.739Z,70.67
2023-11-20T04:29:47.733Z,70.28
2023-11-20T04:32:20.405Z,70.06
2023-11-20T04:34:51.108Z,70.44
2023-11-20T04:37:21.284Z,70.86
2023-11-20T04:39:58.424Z,70.61
2023-11-20T04:42:26.871Z,70.90
2023-11-20T04:45:01.453Z,70.39
2023-11-20T06:50:37.637Z,70.79
2023-11-20T06:53:05.641Z,70.29
2023-11-20T06:55:32.859Z,70.96
2023-11-20T06:57:59.949Z,70.60
2023-11-20T07:00:27.178Z,70.79
2023-11-20T07:02:55.767Z,70.16
2023-11-20T07:05:23.934Z,70.40
2023-11-20T07:07:54.770Z,69.71
2023-11-20T07:10:26.627Z,70.45
2023-11-20T07:12:55.370Z,69.80
2023-11-20T07:15:23.480Z,69.81
2023-11-20T07:17:51.515Z,69.81
2023-11-20T07:20:18.743Z,69.58
2023-11-20T07:22:46.536Z,69.27
2023-11-20T07:25:14.437Z,69.25
2023-11-20T07:27:41.772Z,68.67
2023-11-20T07:30:10.512Z,68.42
2023-11-20T07:32:38.068Z,68.77
2023-11-20T07:35:06.446Z,67.66
2023-11-20T07:37:33.810Z,68.09
2023-11-20T07:40:08.963Z,68.37
2023-11-20T07:42:36.344Z,67.83
2023-11-20T07:45:03.819Z,68.12
2023-11-20T07:47:31.012Z,67.89
2023-11-20T07:49:58.454Z,67.88
2023-11-20T07:52:25.850Z,68.38
2023-11-20T07:54:53.382Z,67.74
2023-11-20T07:57:22.901Z,67.83
2023-11-20T07:59:51.493Z,68.00
2023-11-20T08:02:19.276Z,68.07
2023-11-20T08:04:48.081Z,67.03
2023-11-20T08:07:15.679Z,66.48
2023-11-20T08:09:42.916Z,66.19
2023-11-20T08:12:10.266Z,65.78
2023-11-20T08:14:37.792Z,65.63
2023-11-20T08:17:04.956Z,65.89
2023-11-20T08:19:32.217Z,65.87
2023-11-20T08:21:59.610Z,66.00
2023-11-20T08:24:26.879Z,65.84
2023-11-20T08:26:54.019Z,66.02
2023-11-20T08:29:21.423Z,63.93
2023-11-20T08:31:48.956Z,61.68
2023-11-20T08:34:18.652Z,60.10
2023-11-20T08:36:47.694Z,59.81
2023-11-20T08:39:16.934Z,58.17
2023-11-20T08:41:48.878Z,56.27
2023-11-20T08:44:16.904Z,55.42
2023-11-20T08:46:44.677Z,54.10
2023-11-20T08:49:14.136Z,53.80
2023-11-20T08:51:48.820Z,53.41
2023-11-20T08:54:19.700Z,53.22
2023-11-20T08:56:47.658Z,51.53
2023-11-20T08:59:14.863Z,51.44
2023-11-20T09:01:42.122Z,51.59
2023-11-20T09:04:11.506Z,52.13
2023-11-20T09:06:39.001Z,52.87
2023-11-20T09:09:06.643Z,53.69
2023-11-20T09:11:33.945Z,53.47
2023-11-20T09:14:03.966Z,53.14
2023-11-20T09:16:31.503Z,53.65
2023-11-20T09:19:00.153Z,53.83
2023-11-20T09:21:27.570Z,54.22
2023-11-20T09:23:55.049Z,54.55
2023-11-20T09:26:22.297Z,55.00
2023-11-20T09:28:50.651Z,53.63
2023-11-20T09:31:20.057Z,53.61
2023-11-20T09:33:48.582Z,54.07
2023-11-20T09:36:16.161Z,55.08
2023-11-20T09:38:43.584Z,54.98
2023-11-20T09:41:11.749Z,55.43
2023-11-20T09:43:39.957Z,55.45
2023-11-20T09:46:12.060Z,56.00
2023-11-20T09:48:40.421Z,55.94
2023-11-20T09:51:13.713Z,56.68
2023-11-20T09:53:43.349Z,56.39
2023-11-20T09:56:14.085Z,56.57
2023-11-20T09:58:42.808Z,56.05
2023-11-20T10:01:14.349Z,56.36
2023-11-20T10:03:43.619Z,56.27
2023-11-20T10:06:15.297Z,64.86
2023-11-20T10:08:47.600Z,56.62
2023-11-20T10:11:18.116Z,54.86
2023-11-20T10:13:45.395Z,52.62
2023-11-20T10:16:27.844Z,56.62
2023-11-20T10:18:55.491Z,53.56
2023-11-20T10:21:23.429Z,54.92
2023-11-20T10:23:53.661Z,54.84
2023-11-20T10:26:25.446Z,55.40
2023-11-20T10:28:55.927Z,56.40
2023-11-20T10:31:25.070Z,55.88
2023-11-20T10:34:10.936Z,56.09
2023-11-20T10:36:39.366Z,56.17
2023-11-20T10:39:09.529Z,56.14
2023-11-20T10:41:45.580Z,55.85
2023-11-20T10:44:12.681Z,56.26
2023-11-20T10:46:43.077Z,56.18
2023-11-20T10:49:13.973Z,55.05
2023-11-20T10:51:53.289Z,54.63
2023-11-20T10:54:29.912Z,54.59
2023-11-20T10:57:02.736Z,54.71
2023-11-20T10:59:35.791Z,55.24
2023-11-20T11:02:08.409Z,54.85
2023-11-20T11:04:38.504Z,55.04
2023-11-20T11:07:09.911Z,54.42
2023-11-20T11:09:39.824Z,54.95
2023-11-20T11:12:07.667Z,55.05
2023-11-20T11:14:35.027Z,56.46
2023-11-20T11:17:07.125Z,55.49
2023-11-20T11:19:41.730Z,54.03
2023-11-20T11:22:14.622Z,52.90
2023-11-20T11:24:47.477Z,53.73
2023-11-20T11:27:20.442Z,54.54
2023-11-20T11:29:51.435Z,54.52
2023-11-20T11:32:31.163Z,54.96
2023-11-20T11:35:36.340Z,54.90
2023-11-20T11:38:21.838Z,54.66
2023-11-20T11:41:09.908Z,53.66
2023-11-20T11:43:53.807Z,52.92
2023-11-20T11:46:21.498Z,53.27
2023-11-20T11:48:48.839Z,52.73
2023-11-20T11:51:25.692Z,54.08
2023-11-20T11:54:15.980Z,53.80
2023-11-20T11:57:20.802Z,53.90
2023-11-20T11:59:50.062Z,53.92
2023-11-20T12:02:20.262Z,53.25
2023-11-20T12:04:51.372Z,52.72
2023-11-20T12:07:40.230Z,53.02
2023-11-20T12:10:15.135Z,52.52
2023-11-20T12:12:58.604Z,52.44
2023-11-20T12:15:32.571Z,52.39
2023-11-20T12:18:05.599Z,51.57
2023-11-20T12:20:45.510Z,51.30
2023-11-20T12:23:24.394Z,50.38
2023-11-20T12:25:54.688Z,50.02
2023-11-20T12:28:26.511Z,50.66
2023-11-20T12:30:57.668Z,50.98
2023-11-20T12:33:25.001Z,51.36
2023-11-20T12:35:53.536Z,51.82
2023-11-20T12:38:21.193Z,51.98
2023-11-20T12:40:53.957Z,52.62
2023-11-20T12:43:22.464Z,53.38
2023-11-20T12:45:51.210Z,53.21
2023-11-20T12:48:18.631Z,53.40
2023-11-20T12:50:50.777Z,53.38
2023-11-20T12:53:22.861Z,53.65
2023-11-20T12:55:54.401Z,54.28
2023-11-20T12:58:22.431Z,53.88
2023-11-20T13:00:50.663Z,53.94
2023-11-20T13:03:19.944Z,54.33
2023-11-20T13:05:52.057Z,54.60
2023-11-20T13:08:24.703Z,54.97
2023-11-20T13:10:56.324Z,55.76
2023-11-20T13:13:37.369Z,55.33
2023-11-20T13:16:31.075Z,55.11
2023-11-20T13:18:58.718Z,55.64
2023-11-20T13:21:32.313Z,56.03
2023-11-20T13:24:06.105Z,56.78
2023-11-20T13:26:52.841Z,56.80
2023-11-20T13:32:57.523Z,57.06
2023-11-20T13:36:02.205Z,57.36
2023-11-20T13:39:12.694Z,57.31
2023-11-20T13:42:20.367Z,56.67
2023-11-20T13:47:49.710Z,57.23
2023-11-20T13:50:19.983Z,56.92
2023-11-20T13:53:15.895Z,56.93
2023-11-20T13:56:10.790Z,56.75
2023-11-20T13:58:55.665Z,57.13
2023-11-20T14:01:34.811Z,56.62
2023-11-20T14:04:12.109Z,57.31
2023-11-20T14:06:44.332Z,57.62
2023-11-20T14:09:12.386Z,58.29
2023-11-20T14:11:44.930Z,58.61
2023-11-20T14:14:17.242Z,58.51
2023-11-20T14:16:44.752Z,58.66
2023-11-20T14:19:18.203Z,58.43
2023-11-20T14:21:53.364Z,57.92
2023-11-20T14:24:23.682Z,57.82
2023-11-20T14:26:51.761Z,57.74
2023-11-20T14:29:19.769Z,56.69
2023-11-20T14:31:57.143Z,56.18
2023-11-20T14:34:28.005Z,55.32
2023-11-20T14:37:11.068Z,55.68
2023-11-20T14:39:38.714Z,56.49
2023-11-20T14:42:10.118Z,56.55
2023-11-20T14:44:40.513Z,57.46
2023-11-20T14:47:08.165Z,56.92
2023-11-20T14:49:39.806Z,57.24
2023-11-20T14:52:09.752Z,56.50
2023-11-20T14:54:37.094Z,56.65
2023-11-20T14:57:05.213Z,58.06
2023-11-20T14:59:40.060Z,58.26
2023-11-20T15:02:07.912Z,58.35
2023-11-20T15:04:44.036Z,59.22
2023-11-20T15:07:28.158Z,59.08
2023-11-20T15:10:01.684Z,59.43
2023-11-20T15:12:29.102Z,59.78
2023-11-20T15:14:56.494Z,59.54
2023-11-20T15:17:23.832Z,60.28
2023-11-20T15:19:51.443Z,60.08
2023-11-20T15:22:18.851Z,60.28
2023-11-20T15:24:46.615Z,61.02
2023-11-20T15:27:13.847Z,61.44
2023-11-20T15:29:42.615Z,61.36
2023-11-20T15:32:12.478Z,61.46
2023-11-20T15:34:40.121Z,60.89
2023-11-20T15:37:09.432Z,61.46
2023-11-20T15:39:36.856Z,61.68
2023-11-20T15:42:05.719Z,62.02
2023-11-20T15:44:33.024Z,62.23
2023-11-20T15:47:00.331Z,61.50
2023-11-20T15:49:27.871Z,62.29
2023-11-20T15:51:58.532Z,62.67
2023-11-20T15:54:25.968Z,62.93
2023-11-20T15:56:53.633Z,63.48
2023-11-20T15:59:25.050Z,63.16
2023-11-20T16:01:53.991Z,63.35
2023-11-20T16:04:23.346Z,63.52
2023-11-20T16:06:53.947Z,63.31
2023-11-20T16:09:23.372Z,63.18
2023-11-20T16:11:53.737Z,63.01
2023-11-20T16:14:25.082Z,62.86
2023-11-20T16:16:56.014Z,61.82
2023-11-20T16:19:25.032Z,61.13
2023-11-20T16:21:52.422Z,61.09
2023-11-20T16:24:22.621Z,61.25
2023-11-20T16:26:49.950Z,61.09
2023-11-20T16:29:23.851Z,61.75
2023-11-20T17:18:12.959Z,61.63
2023-11-20T17:20:42.099Z,61.66
2023-11-20T17:23:09.582Z,61.81
2023-11-20T17:25:37.328Z,61.85
2023-11-20T17:28:05.179Z,62.21
2023-11-20T17:30:32.509Z,63.02
2023-11-20T17:32:59.750Z,63.28
2023-11-20T17:35:27.206Z,62.62
2023-11-20T17:37:58.326Z,63.26
2023-11-20T17:40:26.297Z,63.08
2023-11-20T17:42:53.904Z,63.24
2023-11-20T17:45:21.967Z,62.84
2023-11-20T17:47:52.814Z,63.05
2023-11-20T17:50:23.935Z,63.77
2023-11-20T17:56:14.607Z,64.30
2023-11-20T17:59:25.912Z,63.94
2023-11-20T18:01:59.109Z,63.90
2023-11-20T18:07:11.082Z,63.75
2023-11-20T18:09:38.305Z,63.90
2023-11-20T18:12:06.213Z,63.09
2023-11-20T18:14:33.646Z,63.65
2023-11-20T18:17:01.276Z,63.61
2023-11-20T18:19:28.817Z,63.90
2023-11-20T18:21:56.139Z,63.87
2023-11-20T18:24:24.339Z,63.90
2023-11-20T18:26:51.591Z,63.84
2023-11-20T18:29:18.916Z,63.60
2023-11-20T18:31:47.028Z,63.77
2023-11-20T18:34:14.717Z,63.41
2023-11-20T18:36:43.151Z,63.45
2023-11-20T18:39:11.513Z,62.80
2023-11-20T18:41:43.190Z,64.05
2023-11-20T18:44:10.546Z,64.48
2023-11-20T18:46:37.806Z,63.27
2023-11-20T18:49:05.155Z,63.73
2023-11-20T18:51:33.587Z,63.04
2023-11-20T18:54:00.896Z,64.35
2023-11-20T18:56:29.878Z,63.67
2023-11-20T18:58:57.081Z,63.82
2023-11-20T19:01:24.615Z,64.20
2023-11-20T19:03:52.340Z,64.30
2023-11-20T19:06:21.402Z,64.15
2023-11-20T19:08:50.271Z,64.37
2023-11-20T19:11:19.602Z,65.04
2023-11-20T19:13:51.886Z,64.48
2023-11-20T19:16:21.520Z,64.10
2023-11-20T19:19:08.101Z,64.14
2023-11-20T19:21:48.987Z,64.43
2023-11-20T19:24:28.722Z,64.31
2023-11-20T19:26:59.779Z,64.99
2023-11-20T19:29:27.159Z,65.13
2023-11-20T19:31:56.077Z,65.07
2023-11-20T19:34:23.833Z,65.38
2023-11-20T19:36:58.450Z,66.14
2023-11-20T19:39:32.228Z,65.90
2023-11-20T19:42:00.616Z,65.79
2023-11-20T19:45:17.839Z,65.94
2023-11-20T19:48:23.864Z,65.90
2023-11-20T19:56:49.592Z,66.00
2023-11-20T19:57:20.589Z,65.62
2023-11-20T20:04:09.547Z,65.63
2023-11-20T20:06:38.389Z,66.33
2023-11-20T20:09:06.461Z,65.82
2023-11-20T20:11:35.311Z,65.95
2023-11-20T20:14:10.855Z,66.18
2023-11-20T20:16:47.563Z,66.47
2023-11-20T20:19:15.244Z,66.30
2023-11-20T20:21:46.674Z,66.87
2023-11-20T20:24:15.235Z,66.74
2023-11-20T20:26:47.032Z,66.83
2023-11-20T20:29:14.985Z,67.26
2023-11-20T20:31:47.199Z,66.88
2023-11-20T20:34:15.427Z,67.56
2023-11-20T20:36:43.226Z,66.71
2023-11-20T20:39:16.216Z,66.30
2023-11-20T20:41:44.982Z,66.50
2023-11-20T20:44:13.846Z,66.68
2023-11-20T20:46:45.598Z,66.53
2023-11-20T20:49:13.689Z,65.58
2023-11-20T20:51:50.389Z,65.79
2023-11-20T20:54:21.536Z,66.18
2023-11-20T20:56:49.423Z,65.92
2023-11-20T20:59:21.667Z,65.39
2023-11-20T21:01:51.246Z,65.62
2023-11-20T21:04:35.116Z,65.71
2023-11-20T21:10:16.802Z,66.21
2023-11-20T21:12:46.642Z,66.47
2023-11-20T21:15:17.426Z,66.49
2023-11-20T21:17:49.171Z,66.70
2023-11-20T21:20:24.182Z,66.51
2023-11-20T21:22:54.178Z,66.47
2023-11-20T21:25:24.388Z,66.11
2023-11-20T21:27:52.778Z,66.11
2023-11-20T21:30:20.439Z,66.17
2023-11-20T21:32:49.664Z,66.28
2023-11-20T21:35:17.151Z,66.03
2023-11-20T21:37:48.269Z,66.50
2023-11-20T21:40:19.224Z,66.22
2023-11-20T21:42:47.283Z,66.01
2023-11-20T21:45:15.431Z,66.69
2023-11-20T21:47:44.104Z,66.07
2023-11-20T21:50:23.478Z,66.59
2023-11-20T21:52:52.347Z,66.06
2023-11-20T21:55:23.012Z,66.18
2023-11-20T21:57:52.359Z,66.19
2023-11-20T22:00:24.605Z,65.88
2023-11-20T22:03:01.531Z,66.23
2023-11-20T22:10:14.231Z,66.71
2023-11-20T22:12:48.221Z,65.74
2023-11-20T22:15:29.163Z,66.06
2023-11-20T22:17:58.088Z,65.99
2023-11-20T22:20:25.841Z,65.37
2023-11-20T22:22:53.214Z,65.35
2023-11-20T22:25:22.455Z,65.44
2023-11-20T22:27:49.845Z,65.70
2023-11-20T22:30:17.037Z,66.12
2023-11-20T22:32:47.229Z,66.30
2023-11-20T22:35:15.428Z,65.62
2023-11-20T22:37:44.735Z,65.95
2023-11-20T22:40:16.522Z,66.18
2023-11-20T22:42:44.385Z,66.34
2023-11-20T22:45:12.320Z,66.65
2023-11-20T22:47:40.002Z,66.98
2023-11-20T22:50:11.685Z,66.96
2023-11-20T22:52:40.459Z,66.87
2023-11-20T22:55:08.774Z,66.89
2023-11-20T22:57:39.648Z,67.09
2023-11-20T23:00:09.003Z,67.28
2023-11-20T23:02:36.432Z,66.71
2023-11-20T23:05:04.445Z,67.84
2023-11-20T23:07:31.961Z,67.99
2023-11-20T23:09:59.294Z,68.73
2023-11-20T23:12:26.710Z,68.78
2023-11-20T23:14:57.120Z,68.66
2023-11-20T23:17:25.733Z,68.24
2023-11-20T23:19:59.482Z,68.77
2023-11-20T23:22:40.787Z,69.93
2023-11-20T23:25:20.440Z,70.72
2023-11-20T23:27:51.695Z,71.74
2023-11-20T23:30:22.456Z,71.66
2023-11-20T23:32:50.848Z,72.75
2023-11-20T23:35:18.924Z,73.40
2023-11-20T23:37:46.916Z,74.37
2023-11-20T23:40:16.606Z,75.58
2023-11-20T23:42:45.028Z,75.89
2023-11-20T23:45:14.559Z,75.58
2023-11-20T23:47:42.617Z,77.11
2023-11-20T23:50:11.031Z,77.47
2023-11-20T23:52:38.865Z,78.28
2023-11-20T23:55:07.022Z,78.33
2023-11-20T23:57:34.398Z,78.93
